Airfield :
LOGIN :

Register | Disclaimer

   EN    FR    IT 

 










Legend :    VFR   Marginal VFR   IFR   Intensive IFR   Very Intensive IFR
Visi :
Ceiling :
>= 8 km
>= 3000ft
5 to 8 km
1000 to 3000 ft
1500m to 5 km
500 to 1000 ft
800 to 1500m
200 to 500 ft
< 800m
< 200 ft
Symbols :   Thunderstorms  Fog  Heavy snow  Heavy precipitations  Wind > 20 kt
SIGMETs :     Misc.  Thunderstorms  Icing  Turbulence  Mountain Waves  Volcanic Ashes







- Airport Elevation : 63 ft
- IATA code : BZM


EHWO - Woensdrecht Airbase

CURRENT METAR :
  • 200825Z AUTO 22012G26KT 170V250 9999 BKN019 BKN023 BKN058 14/10 Q1006 WHT 22014KT 9999 FEW017 SCT020 BKN025 TEMPO 22016G26KT

EXPIRED METARs :
  • 200818Z AUTO 22014KT 180V250 9999 FEW019 SCT022 BKN058 14/10 Q1006 WHT 22016KT 9999 FEW017 SCT020 BKN025
  • 200755Z AUTO 21011KT 160V250 9999 FEW016 BKN100 14/11 Q1006 BLU 22014KT 9999 FEW017 SCT100 TEMPO FEW017 SCT020
  • 200743Z AUTO 21010KT 160V250 9999 SCT016 BKN020 BKN100 14/11 Q1006 WHT 22014KT 9999 FEW017 SCT100 BECMG FEW017 SCT020
  • 200727Z AUTO 21009KT 170V260 9999 FEW018 SCT021 BKN100 14/11 Q1005 WHT 22014KT 9999 FEW017 SCT100 BECMG FEW017 SCT020
  • 200725Z AUTO 21010KT 170V240 9999 FEW017 BKN100 14/11 Q1005 BLU 22014KT 9999 FEW017 SCT100 BECMG FEW017 SCT020
  • 200710Z AUTO 21010KT 170V240 9999 FEW015 BKN100 13/11 Q1005 BLU 22014KT 9999 FEW017
  • 200655Z AUTO 22012KT 180V260 9999 NCD 13/11 Q1005 BLU 22014KT 9999 FEW017
  • 200629Z AUTO 22011KT 180V260 9999 FEW016 14/12 Q1005 BLU 22014KT 9999 FEW017
  • 200625Z AUTO 22012KT 190V250 9999 FEW016 SCT020 14/12 Q1004 WHT 22014KT 9999 FEW012 SCT020 BECMG FEW017
  • 200614Z AUTO 22010KT 190V260 9999 FEW011 SCT015 BKN023 14/12 Q1004 WHT 22014KT 9999 FEW012 SCT020 BECMG SCT025
  • 200559Z AUTO 22011KT 190V260 9999 FEW015CB SCT070 14/12 Q1004 BLU 22014KT 9999 FEW012 SCT018CB

TAF TAF EHWO
Valid from the 20 at 05:00 until the 20 at 17:00 UTC


200419Z 2005/2017 18010KT 9999 SCT030 BKN060
TEMPO 2005/2006 19010G22KT SCT012 SCT015CB BKN019
BECMG 2009/2011 22016G30KT BKN020 OVC035
TEMPO 2011/2016 23017G34KT SCT014 SCT018CB BKN020
No reported NOTAMs for that airfield.
1 SIGMET reported for the Amsterdam FIR (EHAA) :
 
Severe turbulence
EHAA SIGMET 1 VALID 200806/201200 EHDB
EHAA AMSTERDAM FIR SEV TURB FCST SW OF LINE N5224 E00241 - N5121 E00421 FL250/370 MOV NE 20KT NC=



MET'MAP, your aeronautical weather chart ! - Copyright ORBIFLY December 2007 - Disclaimer

ORBIFLY MET'MAP TEAM :

Programming & Development : Alexandra Zaïnal
Concept & Development : Baudouin d'Aumeries
Co-Development & Prog : Marc-Olivier Méhu
Technical & hardware support : Manuel Goepfert

Contact : metmap@orbifly.com




SOURCES & CREDITS :

   NOAA